Allison Park, PA

9:14 AM EDT on July 30, 2016 (GMT -0400)
Andrew's weather | | Change Station
Active Advisory: Areal Flood Advisory

Elev 1118 ft 40.58 °N, 79.95 °W | Updated 2 minutes ago

Rain
Rain
69.8 °F
Feels Like 69.8 °F
N
0.0
Wind Variable Wind from North
Gusts 0.0 mph

Today
High -- | Low -- °F
--% Chance of Precip.
Yesterday
High -- | Low -- °F
Precip. -- in
Pressure 30.00 in
Visibility 5.0 miles
Clouds Clear
Dew Point 69 °F
Humidity 96%
Rainfall 0.04 in
Snow Depth Not available.
6:15 AM 8:36 PM
Waning Crescent, 13% visible
METAR KBTP 301255Z AUTO 04005KT 5SM CLR 20/18 A3000 RMK AO1 LTG DSNT S P0006
Pressure 30.00 in
Visibility 5.0 miles
Clouds Clear
Dew Point 69 °F
Humidity 96%
Rainfall 0.04 in
Snow Depth Not available.
6:15 AM 8:36 PM
Waning Crescent, 13% visible
METAR KBTP 301255Z AUTO 04005KT 5SM CLR 20/18 A3000 RMK AO1 LTG DSNT S P0006

10-Day Weather Forecast

Almanac

Astronomy

Jul. 30, 2016 Rise Set
Actual Time
Civil Twilight
Nautical Twilight
Astronomical Twilight
Moon
Length of Visible Light
Length of Day
Tomorrow will be .
, % of the Moon is Illuminated

Today's Extremes

State Highs State Lows

Community

WunderPhotos

Upload Photos

1,928,555 photos uploaded!

WunderBlog® & News

Nearby

Air Quality

  Air Quality AQ Index Pollutant
Not available.

Snow Depth

Station Depth Elevation

Earthquake Activity

City Distance Mag. Time & Date
Minimum magnitude displayed is 2.5.

Coastal Water Temperatures

Place Temperature

Stations

Nearby Weather Stations

Station Location Temp. Windchill Dew Point Humidity Wind Precip. Elev Updated Type
                   

Watches & Warnings

Areal Flood Advisory
Issued: 9:10 AM EDT Jul. 30, 2016 – National Weather Service

The National Weather Service in Pittsburgh has issued a

* Urban and Small Stream Flood Advisory for poor drainage areas
for...
north central Fayette County in southwestern Pennsylvania...
East Central Washington County in southwestern Pennsylvania...
southeastern Allegheny County in southwestern Pennsylvania...
southwestern Westmoreland County in southwestern Pennsylvania...

* until 1115 am EDT

* at 908 am EDT... Doppler radar indicated heavy rain due to
thunderstorms. This will cause Urban and Small Stream flooding.
Overflowing poor drainage areas will result in minor flooding in
the advisory area. Up to one inch of rain has already fallen.

* Some locations that will experience flooding include...
McMurray... Greensburg... McKeesport... Washington... Jeannette...
Canonsburg... Jefferson Hills... North Versailles... Pleasant Hills...
White Oak and Monessen.

Precautionary/preparedness actions...

A Flood Advisory means river or stream flows are elevated... or
ponding of water in urban or other areas is occurring or is imminent.

Please report flooding by calling 4 1 2... 2 6 2... 1 9 8
8... postingto the NWS Pittsburgh facebook Page... or using
twitter@nwspittsburgh.


Lat... Lon 4034 7945 4016 7929 4007 7960 4011 8024
      4023 8025 4038 7994


Kramar